sensor_id;sensor_type;location;lat;lon;timestamp;P1;durP1;ratioP1;P2;durP2;ratioP2
37273;SDS011;23161;51.250;5.554;2023-03-01T00:00:37;10.00;;;9.05;;
37273;SDS011;23161;51.250;5.554;2023-03-01T00:03:03;13.02;;;10.70;;
37273;SDS011;23161;51.250;5.554;2023-03-01T00:05:29;11.90;;;10.70;;
37273;SDS011;23161;51.250;5.554;2023-03-01T00:07:55;12.30;;;10.98;;
37273;SDS011;23161;51.250;5.554;2023-03-01T00:10:21;10.27;;;9.48;;
37273;SDS011;23161;51.250;5.554;2023-03-01T00:12:46;12.32;;;9.38;;
37273;SDS011;23161;51.250;5.554;2023-03-01T00:15:12;11.57;;;10.50;;
37273;SDS011;23161;51.250;5.554;2023-03-01T00:17:38;17.15;;;13.32;;
37273;SDS011;23161;51.250;5.554;2023-03-01T00:20:04;10.20;;;9.35;;
37273;SDS011;23161;51.250;5.554;2023-03-01T00:22:35;12.20;;;11.10;;
37273;SDS011;23161;51.250;5.554;2023-03-01T00:25:02;12.93;;;11.82;;
37273;SDS011;23161;51.250;5.554;2023-03-01T00:27:29;11.70;;;10.43;;
37273;SDS011;23161;51.250;5.554;2023-03-01T00:29:54;10.50;;;9.52;;
37273;SDS011;23161;51.250;5.554;2023-03-01T00:32:20;11.40;;;10.38;;
37273;SDS011;23161;51.250;5.554;2023-03-01T00:34:46;12.15;;;10.93;;
37273;SDS011;23161;51.250;5.554;2023-03-01T00:37:20;11.40;;;10.40;;
37273;SDS011;23161;51.250;5.554;2023-03-01T00:39:47;12.10;;;10.55;;
37273;SDS011;23161;51.250;5.554;2023-03-01T00:42:13;12.05;;;10.85;;
37273;SDS011;23161;51.250;5.554;2023-03-01T00:44:38;16.50;;;8.95;;
37273;SDS011;23161;51.250;5.554;2023-03-01T00:47:04;11.02;;;10.05;;
37273;SDS011;23161;51.250;5.554;2023-03-01T00:49:30;12.32;;;11.05;;
37273;SDS011;23161;51.250;5.554;2023-03-01T00:51:56;10.55;;;9.55;;
37273;SDS011;23161;51.250;5.554;2023-03-01T00:54:22;10.38;;;9.57;;
37273;SDS011;23161;51.250;5.554;2023-03-01T00:56:48;9.77;;;8.75;;
37273;SDS011;23161;51.250;5.554;2023-03-01T00:59:14;11.93;;;10.68;;
37273;SDS011;23161;51.250;5.554;2023-03-01T01:01:40;12.07;;;10.70;;
37273;SDS011;23161;51.250;5.554;2023-03-01T01:04:09;12.82;;;11.63;;
37273;SDS011;23161;51.250;5.554;2023-03-01T01:06:46;10.10;;;9.23;;
37273;SDS011;23161;51.250;5.554;2023-03-01T01:09:13;12.13;;;10.40;;
37273;SDS011;23161;51.250;5.554;2023-03-01T01:11:45;11.02;;;9.90;;
37273;SDS011;23161;51.250;5.554;2023-03-01T01:14:15;11.48;;;10.52;;
37273;SDS011;23161;51.250;5.554;2023-03-01T01:16:42;11.80;;;10.75;;
37273;SDS011;23161;51.250;5.554;2023-03-01T01:19:09;11.95;;;10.75;;
37273;SDS011;23161;51.250;5.554;2023-03-01T01:21:35;9.73;;;8.73;;
37273;SDS011;23161;51.250;5.554;2023-03-01T01:24:02;13.40;;;11.60;;
37273;SDS011;23161;51.250;5.554;2023-03-01T01:26:30;9.88;;;9.07;;
37273;SDS011;23161;51.250;5.554;2023-03-01T01:28:57;16.48;;;10.77;;
37273;SDS011;23161;51.250;5.554;2023-03-01T01:31:24;12.40;;;11.30;;
37273;SDS011;23161;51.250;5.554;2023-03-01T01:33:54;11.48;;;10.48;;
37273;SDS011;23161;51.250;5.554;2023-03-01T01:38:46;11.77;;;10.57;;
37273;SDS011;23161;51.250;5.554;2023-03-01T01:41:12;14.82;;;11.65;;
37273;SDS011;23161;51.250;5.554;2023-03-01T01:43:41;9.90;;;8.95;;
37273;SDS011;23161;51.250;5.554;2023-03-01T01:48:59;13.27;;;10.85;;
37273;SDS011;23161;51.250;5.554;2023-03-01T01:51:31;9.90;;;9.05;;
37273;SDS011;23161;51.250;5.554;2023-03-01T01:54:06;11.88;;;10.75;;
37273;SDS011;23161;51.250;5.554;2023-03-01T01:56:36;11.27;;;10.35;;
37273;SDS011;23161;51.250;5.554;2023-03-01T01:59:04;15.05;;;10.05;;
37273;SDS011;23161;51.250;5.554;2023-03-01T02:01:30;11.73;;;10.48;;
37273;SDS011;23161;51.250;5.554;2023-03-01T02:03:56;11.68;;;10.68;;
37273;SDS011;23161;51.250;5.554;2023-03-01T02:06:31;10.98;;;9.98;;
37273;SDS011;23161;51.250;5.554;2023-03-01T02:09:02;11.88;;;10.88;;
37273;SDS011;23161;51.250;5.554;2023-03-01T02:11:33;11.60;;;10.50;;
37273;SDS011;23161;51.250;5.554;2023-03-01T02:13:59;12.40;;;11.10;;
37273;SDS011;23161;51.250;5.554;2023-03-01T02:16:25;10.95;;;9.95;;
37273;SDS011;23161;51.250;5.554;2023-03-01T02:18:51;10.73;;;9.82;;
37273;SDS011;23161;51.250;5.554;2023-03-01T02:26:57;12.65;;;11.43;;
37273;SDS011;23161;51.250;5.554;2023-03-01T02:29:25;14.60;;;12.30;;
37273;SDS011;23161;51.250;5.554;2023-03-01T02:31:53;10.75;;;9.65;;
37273;SDS011;23161;51.250;5.554;2023-03-01T02:34:24;13.73;;;11.77;;
37273;SDS011;23161;51.250;5.554;2023-03-01T02:36:57;12.13;;;10.73;;
37273;SDS011;23161;51.250;5.554;2023-03-01T02:39:39;15.98;;;11.63;;
37273;SDS011;23161;51.250;5.554;2023-03-01T02:42:15;12.75;;;11.48;;
37273;SDS011;23161;51.250;5.554;2023-03-01T02:44:46;13.38;;;11.00;;
37273;SDS011;23161;51.250;5.554;2023-03-01T02:47:15;13.23;;;11.18;;
37273;SDS011;23161;51.250;5.554;2023-03-01T02:49:40;10.63;;;9.52;;
37273;SDS011;23161;51.250;5.554;2023-03-01T02:55:11;11.80;;;10.80;;
37273;SDS011;23161;51.250;5.554;2023-03-01T02:57:43;14.75;;;13.18;;
37273;SDS011;23161;51.250;5.554;2023-03-01T03:00:12;12.57;;;11.37;;
37273;SDS011;23161;51.250;5.554;2023-03-01T03:02:45;19.67;;;12.07;;
37273;SDS011;23161;51.250;5.554;2023-03-01T03:05:17;13.02;;;11.85;;
37273;SDS011;23161;51.250;5.554;2023-03-01T03:07:46;9.35;;;8.55;;
37273;SDS011;23161;51.250;5.554;2023-03-01T03:10:19;10.60;;;9.70;;
37273;SDS011;23161;51.250;5.554;2023-03-01T03:12:54;11.63;;;10.05;;
37273;SDS011;23161;51.250;5.554;2023-03-01T03:15:22;12.77;;;10.45;;
37273;SDS011;23161;51.250;5.554;2023-03-01T03:17:49;11.77;;;10.57;;
37273;SDS011;23161;51.250;5.554;2023-03-01T03:22:46;11.73;;;10.57;;
37273;SDS011;23161;51.250;5.554;2023-03-01T03:25:14;12.02;;;10.90;;
37273;SDS011;23161;51.250;5.554;2023-03-01T03:27:41;10.45;;;9.43;;
37273;SDS011;23161;51.250;5.554;2023-03-01T03:30:10;12.57;;;11.27;;
37273;SDS011;23161;51.250;5.554;2023-03-01T03:32:41;11.43;;;10.32;;
37273;SDS011;23161;51.250;5.554;2023-03-01T03:35:15;14.20;;;9.90;;
37273;SDS011;23161;51.250;5.554;2023-03-01T03:37:41;12.05;;;9.73;;
37273;SDS011;23161;51.250;5.554;2023-03-01T03:40:37;11.52;;;10.32;;
37273;SDS011;23161;51.250;5.554;2023-03-01T03:43:08;11.77;;;10.68;;
37273;SDS011;23161;51.250;5.554;2023-03-01T03:45:43;12.07;;;10.88;;
37273;SDS011;23161;51.250;5.554;2023-03-01T03:48:11;11.52;;;10.10;;
37273;SDS011;23161;51.250;5.554;2023-03-01T03:50:38;11.60;;;10.43;;
37273;SDS011;23161;51.250;5.554;2023-03-01T03:53:07;10.68;;;9.88;;
37273;SDS011;23161;51.250;5.554;2023-03-01T03:55:34;12.23;;;11.13;;
37273;SDS011;23161;51.250;5.554;2023-03-01T03:58:04;10.93;;;10.05;;
37273;SDS011;23161;51.250;5.554;2023-03-01T04:00:38;11.32;;;10.18;;
37273;SDS011;23161;51.250;5.554;2023-03-01T04:03:06;13.00;;;11.45;;
37273;SDS011;23161;51.250;5.554;2023-03-01T04:05:33;11.07;;;10.07;;
37273;SDS011;23161;51.250;5.554;2023-03-01T04:07:59;14.45;;;11.20;;
37273;SDS011;23161;51.250;5.554;2023-03-01T04:10:32;12.88;;;11.32;;
37273;SDS011;23161;51.250;5.554;2023-03-01T04:13:18;10.93;;;9.45;;
37273;SDS011;23161;51.250;5.554;2023-03-01T04:15:46;11.13;;;10.05;;
37273;SDS011;23161;51.250;5.554;2023-03-01T04:18:16;11.43;;;10.20;;
37273;SDS011;23161;51.250;5.554;2023-03-01T04:20:43;11.80;;;10.07;;
37273;SDS011;23161;51.250;5.554;2023-03-01T04:23:14;10.95;;;9.57;;
37273;SDS011;23161;51.250;5.554;2023-03-01T04:25:52;11.25;;;10.23;;
37273;SDS011;23161;51.250;5.554;2023-03-01T04:28:26;11.93;;;9.98;;
37273;SDS011;23161;51.250;5.554;2023-03-01T04:31:01;11.15;;;10.05;;
37273;SDS011;23161;51.250;5.554;2023-03-01T04:33:42;7.47;;;6.80;;
37273;SDS011;23161;51.250;5.554;2023-03-01T04:36:10;11.35;;;10.18;;
37273;SDS011;23161;51.250;5.554;2023-03-01T04:38:37;10.90;;;9.90;;
37273;SDS011;23161;51.250;5.554;2023-03-01T04:41:08;11.93;;;10.85;;
37273;SDS011;23161;51.250;5.554;2023-03-01T04:43:35;12.30;;;10.57;;
37273;SDS011;23161;51.250;5.554;2023-03-01T04:46:02;11.32;;;10.25;;
37273;SDS011;23161;51.250;5.554;2023-03-01T04:48:30;13.13;;;11.82;;
37273;SDS011;23161;51.250;5.554;2023-03-01T04:50:58;11.68;;;10.68;;
37273;SDS011;23161;51.250;5.554;2023-03-01T04:53:24;13.82;;;12.43;;
37273;SDS011;23161;51.250;5.554;2023-03-01T04:55:50;11.25;;;10.23;;
37273;SDS011;23161;51.250;5.554;2023-03-01T04:58:16;13.35;;;12.05;;
37273;SDS011;23161;51.250;5.554;2023-03-01T05:00:42;11.95;;;10.85;;
37273;SDS011;23161;51.250;5.554;2023-03-01T05:03:08;13.45;;;12.15;;
37273;SDS011;23161;51.250;5.554;2023-03-01T05:05:35;11.93;;;10.85;;
37273;SDS011;23161;51.250;5.554;2023-03-01T05:08:03;12.10;;;10.70;;
37273;SDS011;23161;51.250;5.554;2023-03-01T05:10:34;10.70;;;9.70;;
37273;SDS011;23161;51.250;5.554;2023-03-01T05:13:01;12.75;;;11.65;;
37273;SDS011;23161;51.250;5.554;2023-03-01T05:15:29;10.35;;;9.45;;
37273;SDS011;23161;51.250;5.554;2023-03-01T05:17:56;11.82;;;10.70;;
37273;SDS011;23161;51.250;5.554;2023-03-01T05:20:25;13.05;;;11.90;;
37273;SDS011;23161;51.250;5.554;2023-03-01T05:22:58;10.50;;;9.55;;
37273;SDS011;23161;51.250;5.554;2023-03-01T05:25:25;12.80;;;11.68;;
37273;SDS011;23161;51.250;5.554;2023-03-01T05:27:52;17.50;;;12.90;;
37273;SDS011;23161;51.250;5.554;2023-03-01T05:30:18;12.10;;;10.90;;
37273;SDS011;23161;51.250;5.554;2023-03-01T05:32:45;11.00;;;9.88;;
37273;SDS011;23161;51.250;5.554;2023-03-01T05:35:15;15.30;;;11.40;;
37273;SDS011;23161;51.250;5.554;2023-03-01T05:37:43;12.95;;;11.75;;
37273;SDS011;23161;51.250;5.554;2023-03-01T05:40:14;17.63;;;11.88;;
37273;SDS011;23161;51.250;5.554;2023-03-01T05:42:43;12.73;;;11.55;;
37273;SDS011;23161;51.250;5.554;2023-03-01T05:45:13;11.13;;;10.10;;
37273;SDS011;23161;51.250;5.554;2023-03-01T05:47:40;11.70;;;10.70;;
37273;SDS011;23161;51.250;5.554;2023-03-01T05:50:14;12.27;;;10.48;;
37273;SDS011;23161;51.250;5.554;2023-03-01T05:52:48;12.52;;;11.38;;
37273;SDS011;23161;51.250;5.554;2023-03-01T05:55:16;15.02;;;12.52;;
37273;SDS011;23161;51.250;5.554;2023-03-01T05:57:44;11.77;;;10.57;;
37273;SDS011;23161;51.250;5.554;2023-03-01T06:00:11;22.02;;;14.68;;
37273;SDS011;23161;51.250;5.554;2023-03-01T06:02:38;18.77;;;14.30;;
37273;SDS011;23161;51.250;5.554;2023-03-01T06:05:07;15.10;;;13.57;;
37273;SDS011;23161;51.250;5.554;2023-03-01T06:07:35;17.88;;;15.98;;
37273;SDS011;23161;51.250;5.554;2023-03-01T06:10:02;14.68;;;13.35;;
37273;SDS011;23161;51.250;5.554;2023-03-01T06:12:32;13.90;;;12.43;;
37273;SDS011;23161;51.250;5.554;2023-03-01T06:14:59;22.10;;;16.38;;
37273;SDS011;23161;51.250;5.554;2023-03-01T06:17:28;21.23;;;19.00;;
37273;SDS011;23161;51.250;5.554;2023-03-01T06:19:55;17.98;;;16.08;;
37273;SDS011;23161;51.250;5.554;2023-03-01T06:22:21;15.95;;;14.35;;
37273;SDS011;23161;51.250;5.554;2023-03-01T06:24:47;14.95;;;12.73;;
37273;SDS011;23161;51.250;5.554;2023-03-01T06:27:12;15.80;;;14.18;;
37273;SDS011;23161;51.250;5.554;2023-03-01T06:29:39;15.68;;;14.13;;
37273;SDS011;23161;51.250;5.554;2023-03-01T06:32:04;18.60;;;16.70;;
37273;SDS011;23161;51.250;5.554;2023-03-01T06:34:30;17.77;;;14.90;;
37273;SDS011;23161;51.250;5.554;2023-03-01T06:36:57;19.13;;;14.70;;
37273;SDS011;23161;51.250;5.554;2023-03-01T06:39:22;16.88;;;15.27;;
37273;SDS011;23161;51.250;5.554;2023-03-01T06:41:48;19.05;;;15.13;;
37273;SDS011;23161;51.250;5.554;2023-03-01T06:44:14;16.98;;;15.15;;
37273;SDS011;23161;51.250;5.554;2023-03-01T06:46:40;15.38;;;13.90;;
37273;SDS011;23161;51.250;5.554;2023-03-01T06:49:06;14.13;;;12.77;;
37273;SDS011;23161;51.250;5.554;2023-03-01T06:51:35;15.52;;;13.98;;
37273;SDS011;23161;51.250;5.554;2023-03-01T06:54:02;15.15;;;13.63;;
37273;SDS011;23161;51.250;5.554;2023-03-01T06:56:29;18.48;;;13.40;;
37273;SDS011;23161;51.250;5.554;2023-03-01T06:58:56;14.55;;;13.13;;
37273;SDS011;23161;51.250;5.554;2023-03-01T07:01:22;17.92;;;13.15;;
37273;SDS011;23161;51.250;5.554;2023-03-01T07:03:47;16.15;;;12.90;;
37273;SDS011;23161;51.250;5.554;2023-03-01T07:06:13;12.25;;;11.07;;
37273;SDS011;23161;51.250;5.554;2023-03-01T07:08:39;13.30;;;12.07;;
37273;SDS011;23161;51.250;5.554;2023-03-01T07:11:05;12.70;;;11.40;;
37273;SDS011;23161;51.250;5.554;2023-03-01T07:13:31;14.50;;;12.23;;
37273;SDS011;23161;51.250;5.554;2023-03-01T07:15:57;12.60;;;11.32;;
37273;SDS011;23161;51.250;5.554;2023-03-01T07:18:23;14.30;;;12.90;;
37273;SDS011;23161;51.250;5.554;2023-03-01T07:20:49;14.43;;;11.98;;
37273;SDS011;23161;51.250;5.554;2023-03-01T07:23:15;13.48;;;10.45;;
37273;SDS011;23161;51.250;5.554;2023-03-01T07:25:41;11.75;;;10.70;;
37273;SDS011;23161;51.250;5.554;2023-03-01T07:28:06;11.90;;;10.52;;
37273;SDS011;23161;51.250;5.554;2023-03-01T07:30:32;11.90;;;9.80;;
37273;SDS011;23161;51.250;5.554;2023-03-01T07:32:58;14.27;;;9.63;;
37273;SDS011;23161;51.250;5.554;2023-03-01T07:35:25;11.02;;;9.95;;
37273;SDS011;23161;51.250;5.554;2023-03-01T07:37:52;12.35;;;9.65;;
37273;SDS011;23161;51.250;5.554;2023-03-01T07:40:18;10.07;;;9.07;;
37273;SDS011;23161;51.250;5.554;2023-03-01T07:42:44;9.75;;;8.77;;
37273;SDS011;23161;51.250;5.554;2023-03-01T07:45:10;9.50;;;8.15;;
37273;SDS011;23161;51.250;5.554;2023-03-01T07:47:37;19.58;;;9.35;;
37273;SDS011;23161;51.250;5.554;2023-03-01T07:50:03;15.35;;;9.10;;
37273;SDS011;23161;51.250;5.554;2023-03-01T07:52:29;10.50;;;9.48;;
37273;SDS011;23161;51.250;5.554;2023-03-01T07:54:56;11.05;;;9.15;;
37273;SDS011;23161;51.250;5.554;2023-03-01T07:57:22;15.73;;;12.45;;
37273;SDS011;23161;51.250;5.554;2023-03-01T07:59:48;15.80;;;9.23;;
37273;SDS011;23161;51.250;5.554;2023-03-01T08:02:13;8.88;;;7.85;;
37273;SDS011;23161;51.250;5.554;2023-03-01T08:04:40;9.32;;;7.60;;
37273;SDS011;23161;51.250;5.554;2023-03-01T08:07:07;14.90;;;7.75;;
37273;SDS011;23161;51.250;5.554;2023-03-01T08:09:36;6.47;;;5.18;;
37273;SDS011;23161;51.250;5.554;2023-03-01T08:12:02;6.68;;;6.00;;
37273;SDS011;23161;51.250;5.554;2023-03-01T08:14:30;5.60;;;5.07;;
37273;SDS011;23161;51.250;5.554;2023-03-01T08:16:56;7.47;;;6.63;;
37273;SDS011;23161;51.250;5.554;2023-03-01T08:19:22;7.53;;;6.25;;
37273;SDS011;23161;51.250;5.554;2023-03-01T08:21:48;8.38;;;6.35;;
37273;SDS011;23161;51.250;5.554;2023-03-01T08:24:14;6.55;;;5.93;;
37273;SDS011;23161;51.250;5.554;2023-03-01T08:26:39;4.97;;;4.57;;
37273;SDS011;23161;51.250;5.554;2023-03-01T08:29:06;11.07;;;6.20;;
37273;SDS011;23161;51.250;5.554;2023-03-01T08:31:34;8.48;;;5.28;;
37273;SDS011;23161;51.250;5.554;2023-03-01T08:34:03;5.25;;;4.82;;
37273;SDS011;23161;51.250;5.554;2023-03-01T08:36:32;6.07;;;5.47;;
37273;SDS011;23161;51.250;5.554;2023-03-01T08:39:03;5.45;;;4.95;;
37273;SDS011;23161;51.250;5.554;2023-03-01T08:41:29;6.45;;;5.55;;
37273;SDS011;23161;51.250;5.554;2023-03-01T08:43:55;5.90;;;5.40;;
37273;SDS011;23161;51.250;5.554;2023-03-01T08:46:27;10.30;;;5.97;;
37273;SDS011;23161;51.250;5.554;2023-03-01T08:48:57;6.90;;;5.65;;
37273;SDS011;23161;51.250;5.554;2023-03-01T08:51:23;5.78;;;5.28;;
37273;SDS011;23161;51.250;5.554;2023-03-01T08:53:50;7.95;;;5.13;;
37273;SDS011;23161;51.250;5.554;2023-03-01T08:56:16;5.90;;;5.35;;
37273;SDS011;23161;51.250;5.554;2023-03-01T08:58:44;6.80;;;6.20;;
37273;SDS011;23161;51.250;5.554;2023-03-01T09:01:12;6.72;;;6.13;;
37273;SDS011;23161;51.250;5.554;2023-03-01T09:03:40;4.22;;;3.83;;
37273;SDS011;23161;51.250;5.554;2023-03-01T09:06:06;7.72;;;6.13;;
37273;SDS011;23161;51.250;5.554;2023-03-01T09:08:37;5.45;;;4.30;;
37273;SDS011;23161;51.250;5.554;2023-03-01T09:11:05;12.35;;;5.55;;
37273;SDS011;23161;51.250;5.554;2023-03-01T09:13:32;6.40;;;5.80;;
37273;SDS011;23161;51.250;5.554;2023-03-01T09:16:00;7.32;;;6.03;;
37273;SDS011;23161;51.250;5.554;2023-03-01T09:18:27;7.88;;;5.65;;
37273;SDS011;23161;51.250;5.554;2023-03-01T09:20:53;6.47;;;5.80;;
37273;SDS011;23161;51.250;5.554;2023-03-01T09:23:26;7.43;;;5.53;;
37273;SDS011;23161;51.250;5.554;2023-03-01T09:25:52;9.30;;;7.50;;
37273;SDS011;23161;51.250;5.554;2023-03-01T09:28:18;8.43;;;6.20;;
37273;SDS011;23161;51.250;5.554;2023-03-01T09:30:43;8.02;;;7.22;;
37273;SDS011;23161;51.250;5.554;2023-03-01T09:33:09;6.40;;;5.05;;
37273;SDS011;23161;51.250;5.554;2023-03-01T09:38:11;8.07;;;7.38;;
37273;SDS011;23161;51.250;5.554;2023-03-01T09:40:43;7.35;;;6.63;;
37273;SDS011;23161;51.250;5.554;2023-03-01T09:43:15;9.63;;;8.05;;
37273;SDS011;23161;51.250;5.554;2023-03-01T09:45:47;10.27;;;6.95;;
37273;SDS011;23161;51.250;5.554;2023-03-01T09:48:18;8.80;;;7.28;;
37273;SDS011;23161;51.250;5.554;2023-03-01T09:50:47;7.07;;;6.38;;
37273;SDS011;23161;51.250;5.554;2023-03-01T09:53:19;8.43;;;6.55;;
37273;SDS011;23161;51.250;5.554;2023-03-01T09:56:04;9.82;;;7.75;;
37273;SDS011;23161;51.250;5.554;2023-03-01T10:06:44;7.15;;;6.45;;
37273;SDS011;23161;51.250;5.554;2023-03-01T10:09:17;9.25;;;8.13;;
37273;SDS011;23161;51.250;5.554;2023-03-01T10:11:45;7.00;;;6.35;;
37273;SDS011;23161;51.250;5.554;2023-03-01T10:17:07;9.05;;;8.25;;
37273;SDS011;23161;51.250;5.554;2023-03-01T10:19:49;10.07;;;6.35;;
37273;SDS011;23161;51.250;5.554;2023-03-01T10:22:16;14.98;;;7.88;;
37273;SDS011;23161;51.250;5.554;2023-03-01T10:24:50;7.85;;;7.18;;
37273;SDS011;23161;51.250;5.554;2023-03-01T10:27:18;10.32;;;7.65;;
37273;SDS011;23161;51.250;5.554;2023-03-01T10:32:38;8.18;;;6.57;;
37273;SDS011;23161;51.250;5.554;2023-03-01T10:38:12;8.35;;;7.55;;
37273;SDS011;23161;51.250;5.554;2023-03-01T10:43:22;10.35;;;8.00;;
37273;SDS011;23161;51.250;5.554;2023-03-01T10:45:53;8.35;;;7.55;;
37273;SDS011;23161;51.250;5.554;2023-03-01T10:48:19;11.65;;;8.35;;
37273;SDS011;23161;51.250;5.554;2023-03-01T10:53:47;9.27;;;7.95;;
37273;SDS011;23161;51.250;5.554;2023-03-01T10:56:17;11.20;;;7.28;;
37273;SDS011;23161;51.250;5.554;2023-03-01T10:58:59;10.80;;;8.23;;
37273;SDS011;23161;51.250;5.554;2023-03-01T11:01:34;7.60;;;6.90;;
37273;SDS011;23161;51.250;5.554;2023-03-01T11:06:36;7.53;;;6.82;;
37273;SDS011;23161;51.250;5.554;2023-03-01T11:09:13;9.05;;;8.18;;
37273;SDS011;23161;51.250;5.554;2023-03-01T11:11:41;11.07;;;8.68;;
37273;SDS011;23161;51.250;5.554;2023-03-01T11:14:12;12.43;;;6.55;;
37273;SDS011;23161;51.250;5.554;2023-03-01T11:16:45;11.77;;;8.30;;
37273;SDS011;23161;51.250;5.554;2023-03-01T11:19:15;11.10;;;8.25;;
37273;SDS011;23161;51.250;5.554;2023-03-01T11:24:47;10.55;;;7.88;;
37273;SDS011;23161;51.250;5.554;2023-03-01T11:29:55;9.60;;;6.43;;
37273;SDS011;23161;51.250;5.554;2023-03-01T11:32:39;8.57;;;7.45;;
37273;SDS011;23161;51.250;5.554;2023-03-01T11:54:26;9.23;;;6.80;;
37273;SDS011;23161;51.250;5.554;2023-03-01T11:57:15;7.95;;;6.95;;
37273;SDS011;23161;51.250;5.554;2023-03-01T12:27:33;10.88;;;7.75;;
37273;SDS011;23161;51.250;5.554;2023-03-01T12:41:55;10.10;;;7.32;;
37273;SDS011;23161;51.250;5.554;2023-03-01T12:53:02;7.35;;;6.65;;
37273;SDS011;23161;51.250;5.554;2023-03-01T12:55:38;8.75;;;7.18;;
37273;SDS011;23161;51.250;5.554;2023-03-01T13:11:49;6.97;;;6.45;;
37273;SDS011;23161;51.250;5.554;2023-03-01T13:16:50;10.45;;;6.72;;
37273;SDS011;23161;51.250;5.554;2023-03-01T13:19:21;8.93;;;6.18;;
37273;SDS011;23161;51.250;5.554;2023-03-01T13:21:50;6.22;;;5.72;;
37273;SDS011;23161;51.250;5.554;2023-03-01T13:29:32;6.68;;;6.07;;
37273;SDS011;23161;51.250;5.554;2023-03-01T13:32:23;6.10;;;5.15;;
37273;SDS011;23161;51.250;5.554;2023-03-01T13:37:18;6.88;;;6.22;;
37273;SDS011;23161;51.250;5.554;2023-03-01T13:39:51;8.45;;;6.85;;
37273;SDS011;23161;51.250;5.554;2023-03-01T13:45:03;6.35;;;5.60;;
37273;SDS011;23161;51.250;5.554;2023-03-01T13:47:40;6.38;;;5.75;;
37273;SDS011;23161;51.250;5.554;2023-03-01T13:50:15;7.00;;;6.38;;
37273;SDS011;23161;51.250;5.554;2023-03-01T13:52:45;10.40;;;6.68;;
37273;SDS011;23161;51.250;5.554;2023-03-01T13:58:01;6.55;;;5.32;;
37273;SDS011;23161;51.250;5.554;2023-03-01T14:00:39;8.88;;;5.63;;
37273;SDS011;23161;51.250;5.554;2023-03-01T14:03:13;8.98;;;6.15;;
37273;SDS011;23161;51.250;5.554;2023-03-01T14:05:56;7.57;;;6.32;;
37273;SDS011;23161;51.250;5.554;2023-03-01T14:08:29;6.13;;;4.70;;
37273;SDS011;23161;51.250;5.554;2023-03-01T14:16:04;6.85;;;5.10;;
37273;SDS011;23161;51.250;5.554;2023-03-01T14:18:35;9.32;;;6.65;;
37273;SDS011;23161;51.250;5.554;2023-03-01T14:21:12;9.38;;;6.50;;
37273;SDS011;23161;51.250;5.554;2023-03-01T14:26:07;8.98;;;6.45;;
37273;SDS011;23161;51.250;5.554;2023-03-01T14:28:34;7.07;;;6.32;;
37273;SDS011;23161;51.250;5.554;2023-03-01T14:31:25;7.45;;;6.72;;
37273;SDS011;23161;51.250;5.554;2023-03-01T14:33:56;4.90;;;4.40;;
37273;SDS011;23161;51.250;5.554;2023-03-01T14:36:27;6.13;;;5.63;;
37273;SDS011;23161;51.250;5.554;2023-03-01T14:38:54;5.15;;;4.43;;
37273;SDS011;23161;51.250;5.554;2023-03-01T14:41:24;5.57;;;5.07;;
37273;SDS011;23161;51.250;5.554;2023-03-01T14:43:55;6.35;;;5.75;;
37273;SDS011;23161;51.250;5.554;2023-03-01T14:46:34;7.00;;;6.30;;
37273;SDS011;23161;51.250;5.554;2023-03-01T14:49:03;9.27;;;5.15;;
37273;SDS011;23161;51.250;5.554;2023-03-01T14:57:12;14.90;;;6.25;;
37273;SDS011;23161;51.250;5.554;2023-03-01T14:59:51;6.95;;;6.35;;
37273;SDS011;23161;51.250;5.554;2023-03-01T15:02:20;7.40;;;5.95;;
37273;SDS011;23161;51.250;5.554;2023-03-01T15:04:50;6.38;;;5.80;;
37273;SDS011;23161;51.250;5.554;2023-03-01T15:07:17;5.75;;;5.18;;
37273;SDS011;23161;51.250;5.554;2023-03-01T15:09:44;11.52;;;6.78;;
37273;SDS011;23161;51.250;5.554;2023-03-01T15:15:19;9.75;;;6.10;;
37273;SDS011;23161;51.250;5.554;2023-03-01T15:17:48;6.25;;;5.80;;
37273;SDS011;23161;51.250;5.554;2023-03-01T15:20:20;4.97;;;4.45;;
37273;SDS011;23161;51.250;5.554;2023-03-01T15:22:51;4.35;;;4.00;;
37273;SDS011;23161;51.250;5.554;2023-03-01T15:25:18;6.47;;;5.20;;
37273;SDS011;23161;51.250;5.554;2023-03-01T15:27:46;7.40;;;4.85;;
37273;SDS011;23161;51.250;5.554;2023-03-01T15:35:47;5.85;;;5.35;;
37273;SDS011;23161;51.250;5.554;2023-03-01T15:41:32;9.25;;;6.70;;
37273;SDS011;23161;51.250;5.554;2023-03-01T15:46:45;7.32;;;5.85;;
37273;SDS011;23161;51.250;5.554;2023-03-01T15:49:22;7.70;;;7.03;;
37273;SDS011;23161;51.250;5.554;2023-03-01T15:51:56;4.90;;;4.50;;
37273;SDS011;23161;51.250;5.554;2023-03-01T15:54:23;6.18;;;5.57;;
37273;SDS011;23161;51.250;5.554;2023-03-01T15:56:51;10.43;;;6.80;;
37273;SDS011;23161;51.250;5.554;2023-03-01T15:59:17;6.80;;;6.13;;
37273;SDS011;23161;51.250;5.554;2023-03-01T16:01:43;7.03;;;5.85;;
37273;SDS011;23161;51.250;5.554;2023-03-01T16:04:10;8.02;;;5.88;;
37273;SDS011;23161;51.250;5.554;2023-03-01T16:06:41;6.00;;;5.40;;
37273;SDS011;23161;51.250;5.554;2023-03-01T16:09:07;6.45;;;5.95;;
37273;SDS011;23161;51.250;5.554;2023-03-01T16:11:34;12.60;;;9.70;;
37273;SDS011;23161;51.250;5.554;2023-03-01T16:14:02;7.28;;;6.60;;
37273;SDS011;23161;51.250;5.554;2023-03-01T16:16:28;5.85;;;5.45;;
37273;SDS011;23161;51.250;5.554;2023-03-01T16:18:55;8.02;;;5.88;;
37273;SDS011;23161;51.250;5.554;2023-03-01T16:21:22;9.98;;;7.85;;
37273;SDS011;23161;51.250;5.554;2023-03-01T16:23:49;11.82;;;7.45;;
37273;SDS011;23161;51.250;5.554;2023-03-01T16:26:16;6.32;;;5.80;;
37273;SDS011;23161;51.250;5.554;2023-03-01T16:28:43;6.18;;;5.53;;
37273;SDS011;23161;51.250;5.554;2023-03-01T16:31:10;7.68;;;6.95;;
37273;SDS011;23161;51.250;5.554;2023-03-01T16:33:37;7.00;;;6.30;;
37273;SDS011;23161;51.250;5.554;2023-03-01T16:36:07;6.88;;;5.32;;
37273;SDS011;23161;51.250;5.554;2023-03-01T16:38:34;6.10;;;5.57;;
37273;SDS011;23161;51.250;5.554;2023-03-01T16:41:00;10.30;;;6.75;;
37273;SDS011;23161;51.250;5.554;2023-03-01T16:43:26;7.90;;;6.75;;
37273;SDS011;23161;51.250;5.554;2023-03-01T16:45:52;8.13;;;7.32;;
37273;SDS011;23161;51.250;5.554;2023-03-01T16:48:18;8.15;;;6.57;;
37273;SDS011;23161;51.250;5.554;2023-03-01T16:50:44;7.95;;;7.13;;
37273;SDS011;23161;51.250;5.554;2023-03-01T16:53:10;8.25;;;6.18;;
37273;SDS011;23161;51.250;5.554;2023-03-01T16:55:36;8.23;;;7.43;;
37273;SDS011;23161;51.250;5.554;2023-03-01T16:58:03;7.07;;;6.43;;
37273;SDS011;23161;51.250;5.554;2023-03-01T17:00:29;9.80;;;7.40;;
37273;SDS011;23161;51.250;5.554;2023-03-01T17:02:55;8.00;;;7.28;;
37273;SDS011;23161;51.250;5.554;2023-03-01T17:05:21;9.75;;;7.40;;
37273;SDS011;23161;51.250;5.554;2023-03-01T17:07:48;10.68;;;9.30;;
37273;SDS011;23161;51.250;5.554;2023-03-01T17:10:14;14.35;;;9.35;;
37273;SDS011;23161;51.250;5.554;2023-03-01T17:12:40;12.00;;;9.88;;
37273;SDS011;23161;51.250;5.554;2023-03-01T17:15:06;7.88;;;7.18;;
37273;SDS011;23161;51.250;5.554;2023-03-01T17:17:32;11.23;;;9.02;;
37273;SDS011;23161;51.250;5.554;2023-03-01T17:19:59;7.72;;;7.00;;
37273;SDS011;23161;51.250;5.554;2023-03-01T17:22:25;9.77;;;7.90;;
37273;SDS011;23161;51.250;5.554;2023-03-01T17:24:51;9.73;;;8.75;;
37273;SDS011;23161;51.250;5.554;2023-03-01T17:27:17;9.48;;;8.48;;
37273;SDS011;23161;51.250;5.554;2023-03-01T17:29:43;11.00;;;8.13;;
37273;SDS011;23161;51.250;5.554;2023-03-01T17:32:09;10.80;;;7.72;;
37273;SDS011;23161;51.250;5.554;2023-03-01T17:34:35;8.45;;;7.60;;
37273;SDS011;23161;51.250;5.554;2023-03-01T17:37:01;9.93;;;8.73;;
37273;SDS011;23161;51.250;5.554;2023-03-01T17:39:27;8.48;;;7.68;;